sensor_id;sensor_type;location;lat;lon;timestamp;temperature;humidity
39931;DHT22;26635;-35.248;149.138;2022-10-31T00:02:22;16.60;99.60
39931;DHT22;26635;-35.248;149.138;2022-10-31T00:04:52;16.70;99.90
39931;DHT22;26635;-35.248;149.138;2022-10-31T00:07:26;16.80;99.90
39931;DHT22;26635;-35.248;149.138;2022-10-31T00:10:00;16.90;99.90
39931;DHT22;26635;-35.248;149.138;2022-10-31T00:12:32;16.90;99.40
39931;DHT22;26635;-35.248;149.138;2022-10-31T00:15:03;16.90;99.50
39931;DHT22;26635;-35.248;149.138;2022-10-31T00:17:36;16.90;99.60
39931;DHT22;26635;-35.248;149.138;2022-10-31T00:20:07;16.80;99.60
39931;DHT22;26635;-35.248;149.138;2022-10-31T00:22:38;16.80;99.80
39931;DHT22;26635;-35.248;149.138;2022-10-31T00:25:12;16.80;99.80
39931;DHT22;26635;-35.248;149.138;2022-10-31T00:27:42;16.80;99.90
39931;DHT22;26635;-35.248;149.138;2022-10-31T00:30:13;16.80;99.70
39931;DHT22;26635;-35.248;149.138;2022-10-31T00:32:44;16.80;99.90
39931;DHT22;26635;-35.248;149.138;2022-10-31T00:35:26;16.80;99.90
39931;DHT22;26635;-35.248;149.138;2022-10-31T00:38:09;17.00;99.90
39931;DHT22;26635;-35.248;149.138;2022-10-31T00:40:39;17.20;99.90
39931;DHT22;26635;-35.248;149.138;2022-10-31T00:43:09;17.50;99.90
39931;DHT22;26635;-35.248;149.138;2022-10-31T00:45:40;17.70;99.90
39931;DHT22;26635;-35.248;149.138;2022-10-31T00:48:11;17.90;99.90
39931;DHT22;26635;-35.248;149.138;2022-10-31T00:50:42;18.00;99.90
39931;DHT22;26635;-35.248;149.138;2022-10-31T00:53:13;18.00;99.20
39931;DHT22;26635;-35.248;149.138;2022-10-31T00:55:43;17.90;98.50
39931;DHT22;26635;-35.248;149.138;2022-10-31T00:58:14;17.90;98.70
39931;DHT22;26635;-35.248;149.138;2022-10-31T01:00:46;17.90;98.60
39931;DHT22;26635;-35.248;149.138;2022-10-31T01:03:18;17.80;98.30
39931;DHT22;26635;-35.248;149.138;2022-10-31T01:06:10;17.80;98.80
39931;DHT22;26635;-35.248;149.138;2022-10-31T01:08:41;17.70;99.00
39931;DHT22;26635;-35.248;149.138;2022-10-31T01:11:19;17.70;98.90
39931;DHT22;26635;-35.248;149.138;2022-10-31T01:13:52;17.70;98.70
39931;DHT22;26635;-35.248;149.138;2022-10-31T01:16:25;17.70;98.70
39931;DHT22;26635;-35.248;149.138;2022-10-31T01:18:56;17.70;98.90
39931;DHT22;26635;-35.248;149.138;2022-10-31T01:21:27;17.70;99.10
39931;DHT22;26635;-35.248;149.138;2022-10-31T01:23:58;17.70;98.60
39931;DHT22;26635;-35.248;149.138;2022-10-31T01:26:32;17.70;98.90
39931;DHT22;26635;-35.248;149.138;2022-10-31T01:29:08;17.70;98.90
39931;DHT22;26635;-35.248;149.138;2022-10-31T01:31:39;17.70;99.00
39931;DHT22;26635;-35.248;149.138;2022-10-31T01:34:16;17.60;99.00
39931;DHT22;26635;-35.248;149.138;2022-10-31T01:36:46;17.60;98.80
39931;DHT22;26635;-35.248;149.138;2022-10-31T01:39:20;17.60;98.90
39931;DHT22;26635;-35.248;149.138;2022-10-31T01:41:52;17.50;98.90
39931;DHT22;26635;-35.248;149.138;2022-10-31T01:47:30;17.50;99.40
39931;DHT22;26635;-35.248;149.138;2022-10-31T01:50:04;17.50;99.50
39931;DHT22;26635;-35.248;149.138;2022-10-31T01:52:43;17.40;99.80
39931;DHT22;26635;-35.248;149.138;2022-10-31T01:55:35;17.40;99.60
39931;DHT22;26635;-35.248;149.138;2022-10-31T01:58:12;17.40;99.60
39931;DHT22;26635;-35.248;149.138;2022-10-31T02:00:46;17.30;99.80
39931;DHT22;26635;-35.248;149.138;2022-10-31T02:03:19;17.20;99.90
39931;DHT22;26635;-35.248;149.138;2022-10-31T02:05:50;17.20;99.90
39931;DHT22;26635;-35.248;149.138;2022-10-31T02:08:28;17.10;99.90
39931;DHT22;26635;-35.248;149.138;2022-10-31T02:11:01;17.00;99.90
39931;DHT22;26635;-35.248;149.138;2022-10-31T02:13:31;17.00;99.90
39931;DHT22;26635;-35.248;149.138;2022-10-31T02:16:04;17.00;99.90
39931;DHT22;26635;-35.248;149.138;2022-10-31T02:18:35;16.90;99.90
39931;DHT22;26635;-35.248;149.138;2022-10-31T02:30:16;17.10;99.90
39931;DHT22;26635;-35.248;149.138;2022-10-31T02:33:10;17.10;99.90
39931;DHT22;26635;-35.248;149.138;2022-10-31T02:47:12;17.20;99.90
39931;DHT22;26635;-35.248;149.138;2022-10-31T02:49:57;17.20;99.90
39931;DHT22;26635;-35.248;149.138;2022-10-31T02:52:31;17.20;99.90
39931;DHT22;26635;-35.248;149.138;2022-10-31T02:58:06;17.30;99.90
39931;DHT22;26635;-35.248;149.138;2022-10-31T03:01:08;17.30;99.90
39931;DHT22;26635;-35.248;149.138;2022-10-31T03:19:38;17.80;98.80
39931;DHT22;26635;-35.248;149.138;2022-10-31T03:24:24;17.70;98.80
39931;DHT22;26635;-35.248;149.138;2022-10-31T03:26:58;17.60;98.90
39931;DHT22;26635;-35.248;149.138;2022-10-31T03:29:32;17.60;98.40
39931;DHT22;26635;-35.248;149.138;2022-10-31T03:32:42;17.40;99.10
39931;DHT22;26635;-35.248;149.138;2022-10-31T03:35:07;17.40;99.50
39931;DHT22;26635;-35.248;149.138;2022-10-31T03:37:39;17.40;99.70
39931;DHT22;26635;-35.248;149.138;2022-10-31T03:40:13;17.30;99.60
39931;DHT22;26635;-35.248;149.138;2022-10-31T03:42:59;17.30;99.60
39931;DHT22;26635;-35.248;149.138;2022-10-31T03:45:35;17.20;99.60
39931;DHT22;26635;-35.248;149.138;2022-10-31T03:48:26;17.20;99.90
39931;DHT22;26635;-35.248;149.138;2022-10-31T03:51:23;17.10;99.70
39931;DHT22;26635;-35.248;149.138;2022-10-31T03:54:08;17.00;99.90
39931;DHT22;26635;-35.248;149.138;2022-10-31T03:56:52;17.00;99.90
39931;DHT22;26635;-35.248;149.138;2022-10-31T03:59:29;16.90;99.90
39931;DHT22;26635;-35.248;149.138;2022-10-31T04:02:07;16.80;99.90
39931;DHT22;26635;-35.248;149.138;2022-10-31T04:04:39;16.80;99.90
39931;DHT22;26635;-35.248;149.138;2022-10-31T04:07:18;16.80;99.90
39931;DHT22;26635;-35.248;149.138;2022-10-31T04:09:53;16.80;99.90
39931;DHT22;26635;-35.248;149.138;2022-10-31T04:12:35;16.90;99.90
39931;DHT22;26635;-35.248;149.138;2022-10-31T04:15:07;17.00;99.90
39931;DHT22;26635;-35.248;149.138;2022-10-31T04:17:41;17.00;99.90
39931;DHT22;26635;-35.248;149.138;2022-10-31T04:20:16;17.00;99.90
39931;DHT22;26635;-35.248;149.138;2022-10-31T04:22:47;17.00;99.90
39931;DHT22;26635;-35.248;149.138;2022-10-31T04:25:17;17.00;99.90
39931;DHT22;26635;-35.248;149.138;2022-10-31T04:27:48;17.00;99.90
39931;DHT22;26635;-35.248;149.138;2022-10-31T04:30:26;17.00;99.90
39931;DHT22;26635;-35.248;149.138;2022-10-31T04:33:05;17.00;99.90
39931;DHT22;26635;-35.248;149.138;2022-10-31T04:35:38;16.90;99.90
39931;DHT22;26635;-35.248;149.138;2022-10-31T04:38:09;16.90;99.90
39931;DHT22;26635;-35.248;149.138;2022-10-31T04:40:41;16.90;99.90
39931;DHT22;26635;-35.248;149.138;2022-10-31T04:43:14;16.90;99.90
39931;DHT22;26635;-35.248;149.138;2022-10-31T04:45:46;16.80;99.90
39931;DHT22;26635;-35.248;149.138;2022-10-31T04:48:17;16.80;99.90
39931;DHT22;26635;-35.248;149.138;2022-10-31T04:50:49;16.80;99.90
39931;DHT22;26635;-35.248;149.138;2022-10-31T04:53:23;16.70;99.90
39931;DHT22;26635;-35.248;149.138;2022-10-31T04:56:03;16.80;99.90
39931;DHT22;26635;-35.248;149.138;2022-10-31T04:58:34;16.70;99.90
39931;DHT22;26635;-35.248;149.138;2022-10-31T05:01:04;16.70;99.90
39931;DHT22;26635;-35.248;149.138;2022-10-31T05:03:35;16.70;99.90
39931;DHT22;26635;-35.248;149.138;2022-10-31T05:06:09;16.70;99.90
39931;DHT22;26635;-35.248;149.138;2022-10-31T05:08:39;16.70;99.90
39931;DHT22;26635;-35.248;149.138;2022-10-31T05:11:13;16.70;99.90
39931;DHT22;26635;-35.248;149.138;2022-10-31T05:13:44;16.80;99.90
39931;DHT22;26635;-35.248;149.138;2022-10-31T05:16:15;16.80;99.90
39931;DHT22;26635;-35.248;149.138;2022-10-31T05:18:45;16.80;99.90
39931;DHT22;26635;-35.248;149.138;2022-10-31T05:21:15;16.80;99.90
39931;DHT22;26635;-35.248;149.138;2022-10-31T05:23:46;16.90;99.90
39931;DHT22;26635;-35.248;149.138;2022-10-31T05:26:16;16.90;99.90
39931;DHT22;26635;-35.248;149.138;2022-10-31T05:28:47;16.90;99.90
39931;DHT22;26635;-35.248;149.138;2022-10-31T05:31:19;16.90;99.90
39931;DHT22;26635;-35.248;149.138;2022-10-31T05:33:50;16.90;99.90
39931;DHT22;26635;-35.248;149.138;2022-10-31T05:36:20;16.90;99.90
39931;DHT22;26635;-35.248;149.138;2022-10-31T05:38:52;16.90;99.90
39931;DHT22;26635;-35.248;149.138;2022-10-31T05:41:22;16.90;99.90
39931;DHT22;26635;-35.248;149.138;2022-10-31T05:43:53;17.00;99.90
39931;DHT22;26635;-35.248;149.138;2022-10-31T05:46:23;17.00;99.90
39931;DHT22;26635;-35.248;149.138;2022-10-31T05:48:53;17.00;99.90
39931;DHT22;26635;-35.248;149.138;2022-10-31T05:51:29;17.00;99.90
39931;DHT22;26635;-35.248;149.138;2022-10-31T05:54:00;17.00;99.90
39931;DHT22;26635;-35.248;149.138;2022-10-31T05:56:30;17.00;99.90
39931;DHT22;26635;-35.248;149.138;2022-10-31T05:59:03;17.00;99.90
39931;DHT22;26635;-35.248;149.138;2022-10-31T06:01:33;17.00;99.90
39931;DHT22;26635;-35.248;149.138;2022-10-31T06:04:04;17.00;99.90
39931;DHT22;26635;-35.248;149.138;2022-10-31T06:06:34;17.00;99.90
39931;DHT22;26635;-35.248;149.138;2022-10-31T06:09:04;16.90;99.90
39931;DHT22;26635;-35.248;149.138;2022-10-31T06:11:35;16.80;99.90
39931;DHT22;26635;-35.248;149.138;2022-10-31T06:14:06;16.80;99.90
39931;DHT22;26635;-35.248;149.138;2022-10-31T06:16:36;16.70;99.90
39931;DHT22;26635;-35.248;149.138;2022-10-31T06:19:07;16.60;99.90
39931;DHT22;26635;-35.248;149.138;2022-10-31T06:21:37;16.60;99.90
39931;DHT22;26635;-35.248;149.138;2022-10-31T06:24:08;16.50;99.90
39931;DHT22;26635;-35.248;149.138;2022-10-31T06:26:43;16.50;99.90
39931;DHT22;26635;-35.248;149.138;2022-10-31T06:29:33;16.40;99.90
39931;DHT22;26635;-35.248;149.138;2022-10-31T06:32:16;16.30;99.90
39931;DHT22;26635;-35.248;149.138;2022-10-31T06:34:55;16.30;99.90
39931;DHT22;26635;-35.248;149.138;2022-10-31T06:37:27;16.20;99.90
39931;DHT22;26635;-35.248;149.138;2022-10-31T06:39:57;16.30;99.90
39931;DHT22;26635;-35.248;149.138;2022-10-31T06:42:28;16.20;99.90
39931;DHT22;26635;-35.248;149.138;2022-10-31T06:45:26;16.20;99.90
39931;DHT22;26635;-35.248;149.138;2022-10-31T06:48:16;16.20;99.90
39931;DHT22;26635;-35.248;149.138;2022-10-31T06:50:47;16.00;99.90
39931;DHT22;26635;-35.248;149.138;2022-10-31T06:53:22;15.80;99.90
39931;DHT22;26635;-35.248;149.138;2022-10-31T06:55:52;15.70;99.90
39931;DHT22;26635;-35.248;149.138;2022-10-31T06:58:23;15.70;99.90
39931;DHT22;26635;-35.248;149.138;2022-10-31T07:00:53;15.70;99.90
39931;DHT22;26635;-35.248;149.138;2022-10-31T07:03:29;15.70;99.90
39931;DHT22;26635;-35.248;149.138;2022-10-31T07:06:00;15.70;99.90
39931;DHT22;26635;-35.248;149.138;2022-10-31T07:08:30;15.70;99.90
39931;DHT22;26635;-35.248;149.138;2022-10-31T07:11:01;15.70;99.90
39931;DHT22;26635;-35.248;149.138;2022-10-31T07:13:31;15.70;99.90
39931;DHT22;26635;-35.248;149.138;2022-10-31T07:16:04;15.70;99.90
39931;DHT22;26635;-35.248;149.138;2022-10-31T07:18:36;15.70;99.90
39931;DHT22;26635;-35.248;149.138;2022-10-31T07:21:06;15.80;99.90
39931;DHT22;26635;-35.248;149.138;2022-10-31T07:23:37;15.80;99.90
39931;DHT22;26635;-35.248;149.138;2022-10-31T07:26:10;15.80;99.90
39931;DHT22;26635;-35.248;149.138;2022-10-31T07:28:40;15.80;99.90
39931;DHT22;26635;-35.248;149.138;2022-10-31T07:31:23;15.80;99.90
39931;DHT22;26635;-35.248;149.138;2022-10-31T07:33:54;15.80;99.90
39931;DHT22;26635;-35.248;149.138;2022-10-31T07:36:25;15.80;99.90
39931;DHT22;26635;-35.248;149.138;2022-10-31T07:38:55;15.80;99.90
39931;DHT22;26635;-35.248;149.138;2022-10-31T07:41:28;15.80;99.90
39931;DHT22;26635;-35.248;149.138;2022-10-31T07:43:59;15.80;99.90
39931;DHT22;26635;-35.248;149.138;2022-10-31T07:46:29;15.80;99.90
39931;DHT22;26635;-35.248;149.138;2022-10-31T07:49:00;15.80;99.90
39931;DHT22;26635;-35.248;149.138;2022-10-31T07:51:30;15.80;99.90
39931;DHT22;26635;-35.248;149.138;2022-10-31T07:54:01;15.70;99.90
39931;DHT22;26635;-35.248;149.138;2022-10-31T07:56:32;15.70;99.90
39931;DHT22;26635;-35.248;149.138;2022-10-31T07:59:02;15.70;99.90
39931;DHT22;26635;-35.248;149.138;2022-10-31T08:01:32;15.70;99.90
39931;DHT22;26635;-35.248;149.138;2022-10-31T08:04:03;15.70;99.90
39931;DHT22;26635;-35.248;149.138;2022-10-31T08:06:33;15.70;99.90
39931;DHT22;26635;-35.248;149.138;2022-10-31T08:09:04;15.80;99.90
39931;DHT22;26635;-35.248;149.138;2022-10-31T08:11:34;15.80;99.90
39931;DHT22;26635;-35.248;149.138;2022-10-31T08:14:05;15.80;99.90
39931;DHT22;26635;-35.248;149.138;2022-10-31T08:16:35;15.80;99.90
39931;DHT22;26635;-35.248;149.138;2022-10-31T08:19:06;15.80;99.90
39931;DHT22;26635;-35.248;149.138;2022-10-31T08:21:36;15.90;99.90
39931;DHT22;26635;-35.248;149.138;2022-10-31T08:24:06;15.90;99.90
39931;DHT22;26635;-35.248;149.138;2022-10-31T08:26:37;15.90;99.90
39931;DHT22;26635;-35.248;149.138;2022-10-31T08:29:07;15.90;99.90
39931;DHT22;26635;-35.248;149.138;2022-10-31T08:31:38;15.90;99.90
39931;DHT22;26635;-35.248;149.138;2022-10-31T08:34:10;15.90;99.90
39931;DHT22;26635;-35.248;149.138;2022-10-31T08:36:40;15.90;99.90
39931;DHT22;26635;-35.248;149.138;2022-10-31T08:39:13;15.90;99.90
39931;DHT22;26635;-35.248;149.138;2022-10-31T08:41:46;15.90;99.90
39931;DHT22;26635;-35.248;149.138;2022-10-31T08:44:17;15.90;99.90
39931;DHT22;26635;-35.248;149.138;2022-10-31T08:46:47;15.90;99.90
39931;DHT22;26635;-35.248;149.138;2022-10-31T08:49:19;15.80;99.90
39931;DHT22;26635;-35.248;149.138;2022-10-31T08:51:49;15.80;99.90
39931;DHT22;26635;-35.248;149.138;2022-10-31T08:54:20;15.80;99.90
39931;DHT22;26635;-35.248;149.138;2022-10-31T08:56:54;15.80;99.90
39931;DHT22;26635;-35.248;149.138;2022-10-31T08:59:25;15.80;99.90
39931;DHT22;26635;-35.248;149.138;2022-10-31T09:01:55;15.80;99.90
39931;DHT22;26635;-35.248;149.138;2022-10-31T09:04:26;15.80;99.90
39931;DHT22;26635;-35.248;149.138;2022-10-31T09:06:57;15.90;99.90
39931;DHT22;26635;-35.248;149.138;2022-10-31T09:09:47;15.90;99.90
39931;DHT22;26635;-35.248;149.138;2022-10-31T09:12:17;15.90;99.90
39931;DHT22;26635;-35.248;149.138;2022-10-31T09:14:48;15.90;99.90
39931;DHT22;26635;-35.248;149.138;2022-10-31T09:17:18;15.90;99.90
39931;DHT22;26635;-35.248;149.138;2022-10-31T09:19:49;15.90;99.90
39931;DHT22;26635;-35.248;149.138;2022-10-31T09:22:20;16.00;99.90
39931;DHT22;26635;-35.248;149.138;2022-10-31T09:24:50;16.00;99.90
39931;DHT22;26635;-35.248;149.138;2022-10-31T09:27:20;16.00;99.90
39931;DHT22;26635;-35.248;149.138;2022-10-31T09:29:51;16.00;99.90
39931;DHT22;26635;-35.248;149.138;2022-10-31T09:32:21;16.00;99.90
39931;DHT22;26635;-35.248;149.138;2022-10-31T09:34:51;16.00;99.90
39931;DHT22;26635;-35.248;149.138;2022-10-31T09:37:21;16.10;99.90
39931;DHT22;26635;-35.248;149.138;2022-10-31T09:39:52;16.10;99.90
39931;DHT22;26635;-35.248;149.138;2022-10-31T09:56:19;16.20;99.90
39931;DHT22;26635;-35.248;149.138;2022-10-31T09:58:58;16.30;99.90
39931;DHT22;26635;-35.248;149.138;2022-10-31T10:02:01;16.20;99.90
39931;DHT22;26635;-35.248;149.138;2022-10-31T10:10:32;16.20;99.90
39931;DHT22;26635;-35.248;149.138;2022-10-31T10:13:26;16.20;99.90
39931;DHT22;26635;-35.248;149.138;2022-10-31T10:27:26;16.20;99.90
39931;DHT22;26635;-35.248;149.138;2022-10-31T10:32:31;16.20;99.90
39931;DHT22;26635;-35.248;149.138;2022-10-31T10:35:27;16.20;99.90
39931;DHT22;26635;-35.248;149.138;2022-10-31T10:40:59;16.20;99.90
39931;DHT22;26635;-35.248;149.138;2022-10-31T10:43:36;16.20;99.90
39931;DHT22;26635;-35.248;149.138;2022-10-31T10:55:03;16.20;99.90
39931;DHT22;26635;-35.248;149.138;2022-10-31T10:58:15;16.30;99.90
39931;DHT22;26635;-35.248;149.138;2022-10-31T11:00:44;16.30;99.90
39931;DHT22;26635;-35.248;149.138;2022-10-31T11:03:18;16.30;99.90
39931;DHT22;26635;-35.248;149.138;2022-10-31T11:05:57;16.40;99.90
39931;DHT22;26635;-35.248;149.138;2022-10-31T11:08:36;16.30;99.90
39931;DHT22;26635;-35.248;149.138;2022-10-31T11:11:29;16.30;99.90
39931;DHT22;26635;-35.248;149.138;2022-10-31T11:14:11;16.30;99.90
39931;DHT22;26635;-35.248;149.138;2022-10-31T11:16:56;16.30;99.90
39931;DHT22;26635;-35.248;149.138;2022-10-31T11:19:39;16.40;99.90
39931;DHT22;26635;-35.248;149.138;2022-10-31T11:22:16;16.40;99.90
39931;DHT22;26635;-35.248;149.138;2022-10-31T11:24:47;16.40;99.90
39931;DHT22;26635;-35.248;149.138;2022-10-31T11:27:22;16.40;99.90
39931;DHT22;26635;-35.248;149.138;2022-10-31T11:29:56;16.40;99.90
39931;DHT22;26635;-35.248;149.138;2022-10-31T11:32:33;16.40;99.90
39931;DHT22;26635;-35.248;149.138;2022-10-31T11:35:10;16.40;99.90
39931;DHT22;26635;-35.248;149.138;2022-10-31T11:37:43;16.50;99.90
39931;DHT22;26635;-35.248;149.138;2022-10-31T11:40:20;16.50;99.90
39931;DHT22;26635;-35.248;149.138;2022-10-31T11:42:52;16.50;99.90
39931;DHT22;26635;-35.248;149.138;2022-10-31T11:45:29;16.50;99.90
39931;DHT22;26635;-35.248;149.138;2022-10-31T11:48:01;16.50;99.90
39931;DHT22;26635;-35.248;149.138;2022-10-31T11:50:39;16.60;99.90
39931;DHT22;26635;-35.248;149.138;2022-10-31T11:53:30;16.60;99.90
39931;DHT22;26635;-35.248;149.138;2022-10-31T11:56:13;16.60;99.90
39931;DHT22;26635;-35.248;149.138;2022-10-31T11:58:59;16.60;99.90
39931;DHT22;26635;-35.248;149.138;2022-10-31T12:01:32;16.60;99.90
39931;DHT22;26635;-35.248;149.138;2022-10-31T12:04:13;16.60;99.90
39931;DHT22;26635;-35.248;149.138;2022-10-31T12:06:46;16.70;99.90
39931;DHT22;26635;-35.248;149.138;2022-10-31T12:22:48;16.90;99.90
39931;DHT22;26635;-35.248;149.138;2022-10-31T12:25:37;16.90;99.90
39931;DHT22;26635;-35.248;149.138;2022-10-31T12:36:25;17.00;99.90
39931;DHT22;26635;-35.248;149.138;2022-10-31T12:56:30;17.10;99.90
39931;DHT22;26635;-35.248;149.138;2022-10-31T12:59:18;17.10;99.90
39931;DHT22;26635;-35.248;149.138;2022-10-31T13:01:59;17.20;99.90
39931;DHT22;26635;-35.248;149.138;2022-10-31T13:10:27;17.20;99.90
39931;DHT22;26635;-35.248;149.138;2022-10-31T13:13:07;17.20;99.90
39931;DHT22;26635;-35.248;149.138;2022-10-31T13:16:11;17.20;99.90
39931;DHT22;26635;-35.248;149.138;2022-10-31T13:38:57;17.10;99.90
39931;DHT22;26635;-35.248;149.138;2022-10-31T13:47:18;16.90;99.90
39931;DHT22;26635;-35.248;149.138;2022-10-31T13:49:50;16.90;99.90
39931;DHT22;26635;-35.248;149.138;2022-10-31T13:52:25;16.90;99.90
39931;DHT22;26635;-35.248;149.138;2022-10-31T13:54:56;16.90;99.90
39931;DHT22;26635;-35.248;149.138;2022-10-31T14:02:57;16.80;99.90
39931;DHT22;26635;-35.248;149.138;2022-10-31T14:05:33;16.80;99.90
39931;DHT22;26635;-35.248;149.138;2022-10-31T14:08:06;16.80;99.90
39931;DHT22;26635;-35.248;149.138;2022-10-31T14:10:49;16.80;99.90
39931;DHT22;26635;-35.248;149.138;2022-10-31T14:16:04;16.70;99.90
39931;DHT22;26635;-35.248;149.138;2022-10-31T14:18:38;16.70;99.90
39931;DHT22;26635;-35.248;149.138;2022-10-31T14:21:39;16.60;99.90
39931;DHT22;26635;-35.248;149.138;2022-10-31T14:29:49;16.20;99.90
39931;DHT22;26635;-35.248;149.138;2022-10-31T14:32:25;16.10;99.90
39931;DHT22;26635;-35.248;149.138;2022-10-31T14:34:57;16.00;99.90
39931;DHT22;26635;-35.248;149.138;2022-10-31T14:40:20;15.80;99.90
39931;DHT22;26635;-35.248;149.138;2022-10-31T14:45:50;15.70;99.90
39931;DHT22;26635;-35.248;149.138;2022-10-31T14:51:28;15.60;99.90
39931;DHT22;26635;-35.248;149.138;2022-10-31T14:54:01;15.50;99.90
39931;DHT22;26635;-35.248;149.138;2022-10-31T14:56:35;15.50;99.90
39931;DHT22;26635;-35.248;149.138;2022-10-31T14:59:12;15.40;99.70
39931;DHT22;26635;-35.248;149.138;2022-10-31T15:02:24;15.30;99.70
39931;DHT22;26635;-35.248;149.138;2022-10-31T15:04:46;15.30;99.70
39931;DHT22;26635;-35.248;149.138;2022-10-31T15:07:24;15.30;99.60
39931;DHT22;26635;-35.248;149.138;2022-10-31T15:10:00;15.20;99.90
39931;DHT22;26635;-35.248;149.138;2022-10-31T15:12:36;15.20;99.20
39931;DHT22;26635;-35.248;149.138;2022-10-31T15:15:14;15.10;99.70
39931;DHT22;26635;-35.248;149.138;2022-10-31T15:17:57;15.10;99.70
39931;DHT22;26635;-35.248;149.138;2022-10-31T15:20:37;15.10;99.40
39931;DHT22;26635;-35.248;149.138;2022-10-31T15:23:16;15.00;99.40
39931;DHT22;26635;-35.248;149.138;2022-10-31T15:25:50;15.00;99.50
39931;DHT22;26635;-35.248;149.138;2022-10-31T15:28:25;14.90;98.90
39931;DHT22;26635;-35.248;149.138;2022-10-31T15:31:00;14.90;99.20
39931;DHT22;26635;-35.248;149.138;2022-10-31T15:33:40;14.80;99.40
39931;DHT22;26635;-35.248;149.138;2022-10-31T15:36:25;14.80;99.80
39931;DHT22;26635;-35.248;149.138;2022-10-31T15:39:02;14.70;99.60
39931;DHT22;26635;-35.248;149.138;2022-10-31T15:41:53;14.70;99.90
39931;DHT22;26635;-35.248;149.138;2022-10-31T15:44:32;14.60;99.90
39931;DHT22;26635;-35.248;149.138;2022-10-31T15:47:04;14.60;99.90
39931;DHT22;26635;-35.248;149.138;2022-10-31T15:49:53;14.60;99.90
39931;DHT22;26635;-35.248;149.138;2022-10-31T15:52:43;14.50;99.00
39931;DHT22;26635;-35.248;149.138;2022-10-31T15:57:54;14.20;97.20
39931;DHT22;26635;-35.248;149.138;2022-10-31T16:00:28;14.10;97.40
39931;DHT22;26635;-35.248;149.138;2022-10-31T16:05:55;13.80;96.60
39931;DHT22;26635;-35.248;149.138;2022-10-31T16:13:42;13.60;96.60
39931;DHT22;26635;-35.248;149.138;2022-10-31T16:16:22;13.50;96.60
39931;DHT22;26635;-35.248;149.138;2022-10-31T16:19:05;13.50;96.40
39931;DHT22;26635;-35.248;149.138;2022-10-31T16:21:44;13.40;97.20
39931;DHT22;26635;-35.248;149.138;2022-10-31T16:24:45;13.30;96.80
39931;DHT22;26635;-35.248;149.138;2022-10-31T16:27:22;13.30;96.50
39931;DHT22;26635;-35.248;149.138;2022-10-31T16:30:00;13.30;95.90
39931;DHT22;26635;-35.248;149.138;2022-10-31T16:38:04;13.10;95.90
39931;DHT22;26635;-35.248;149.138;2022-10-31T16:40:38;13.10;95.90
39931;DHT22;26635;-35.248;149.138;2022-10-31T16:43:12;13.00;95.80
39931;DHT22;26635;-35.248;149.138;2022-10-31T16:45:52;13.00;95.00
39931;DHT22;26635;-35.248;149.138;2022-10-31T16:48:24;13.00;95.20
39931;DHT22;26635;-35.248;149.138;2022-10-31T16:50:56;12.90;95.20
39931;DHT22;26635;-35.248;149.138;2022-10-31T16:53:28;12.90;95.50
39931;DHT22;26635;-35.248;149.138;2022-10-31T16:56:01;12.80;95.50
39931;DHT22;26635;-35.248;149.138;2022-10-31T16:58:34;12.80;95.60
39931;DHT22;26635;-35.248;149.138;2022-10-31T17:01:06;12.80;95.30
39931;DHT22;26635;-35.248;149.138;2022-10-31T17:03:37;12.70;94.40
39931;DHT22;26635;-35.248;149.138;2022-10-31T17:06:12;12.70;95.20
39931;DHT22;26635;-35.248;149.138;2022-10-31T17:08:43;12.60;94.50
39931;DHT22;26635;-35.248;149.138;2022-10-31T17:11:19;12.60;95.80
39931;DHT22;26635;-35.248;149.138;2022-10-31T17:13:53;12.60;95.20
39931;DHT22;26635;-35.248;149.138;2022-10-31T17:16:23;12.60;95.20
39931;DHT22;26635;-35.248;149.138;2022-10-31T17:18:54;12.50;95.90
39931;DHT22;26635;-35.248;149.138;2022-10-31T17:21:25;12.50;95.60
39931;DHT22;26635;-35.248;149.138;2022-10-31T17:23:56;12.40;95.90
39931;DHT22;26635;-35.248;149.138;2022-10-31T17:26:27;12.30;96.20
39931;DHT22;26635;-35.248;149.138;2022-10-31T17:28:58;12.30;96.50
39931;DHT22;26635;-35.248;149.138;2022-10-31T17:31:32;12.30;96.50
39931;DHT22;26635;-35.248;149.138;2022-10-31T17:34:05;12.30;96.00
39931;DHT22;26635;-35.248;149.138;2022-10-31T17:36:37;12.30;96.20
39931;DHT22;26635;-35.248;149.138;2022-10-31T17:39:09;12.30;95.90
39931;DHT22;26635;-35.248;149.138;2022-10-31T17:41:40;12.30;95.80
39931;DHT22;26635;-35.248;149.138;2022-10-31T17:44:10;12.20;96.30
39931;DHT22;26635;-35.248;149.138;2022-10-31T17:46:41;12.20;96.80
39931;DHT22;26635;-35.248;149.138;2022-10-31T17:49:12;12.20;96.50
39931;DHT22;26635;-35.248;149.138;2022-10-31T17:51:42;12.20;97.20
39931;DHT22;26635;-35.248;149.138;2022-10-31T17:54:13;12.20;97.50
39931;DHT22;26635;-35.248;149.138;2022-10-31T17:56:49;12.20;97.10
39931;DHT22;26635;-35.248;149.138;2022-10-31T17:59:20;12.10;98.00
39931;DHT22;26635;-35.248;149.138;2022-10-31T18:01:50;12.10;98.20
39931;DHT22;26635;-35.248;149.138;2022-10-31T18:04:21;12.10;98.40
39931;DHT22;26635;-35.248;149.138;2022-10-31T18:06:52;12.00;98.20
39931;DHT22;26635;-35.248;149.138;2022-10-31T18:09:22;12.00;98.20
39931;DHT22;26635;-35.248;149.138;2022-10-31T18:11:53;12.00;98.60
39931;DHT22;26635;-35.248;149.138;2022-10-31T18:14:23;12.00;98.30
39931;DHT22;26635;-35.248;149.138;2022-10-31T18:16:54;11.90;98.10
39931;DHT22;26635;-35.248;149.138;2022-10-31T18:19:24;11.90;98.20
39931;DHT22;26635;-35.248;149.138;2022-10-31T18:21:55;11.90;98.00
39931;DHT22;26635;-35.248;149.138;2022-10-31T18:24:25;11.80;98.10
39931;DHT22;26635;-35.248;149.138;2022-10-31T18:26:57;11.80;98.30
39931;DHT22;26635;-35.248;149.138;2022-10-31T18:29:27;11.80;98.00
39931;DHT22;26635;-35.248;149.138;2022-10-31T18:31:57;11.80;97.30
39931;DHT22;26635;-35.248;149.138;2022-10-31T18:34:36;11.70;95.90
39931;DHT22;26635;-35.248;149.138;2022-10-31T18:37:06;11.60;96.00
39931;DHT22;26635;-35.248;149.138;2022-10-31T18:39:37;11.50;96.80
39931;DHT22;26635;-35.248;149.138;2022-10-31T18:42:07;11.40;96.40
39931;DHT22;26635;-35.248;149.138;2022-10-31T18:44:37;11.30;96.50
39931;DHT22;26635;-35.248;149.138;2022-10-31T18:47:07;11.20;96.50
39931;DHT22;26635;-35.248;149.138;2022-10-31T18:49:38;11.20;96.70
39931;DHT22;26635;-35.248;149.138;2022-10-31T18:52:09;11.10;96.70
39931;DHT22;26635;-35.248;149.138;2022-10-31T18:54:39;11.10;97.10